SHT3U EGCC-EGLL
Flight info
| Callsign | SHT3U |
|---|---|
| Flight time | 0h 30m |
| Altitude | 19000 |
| Route | SANBA N859 HON |
| Aircraft | A320/M-SDE3FGHIRWY/LB1 |
Departure
| Time | 2026-05-07 18:56 |
|---|---|
| Airport | Manchester Airport (EGCC) |
Arrival
| Time | 2026-05-07 19:26 |
|---|---|
| Airport | London Heathrow Airport (EGLL) |
| Time | Latitude | Longitude | Altitude | Speed | Heading |
|---|---|---|---|---|---|
| 2026-05-07 18:29 | 53.36836 | -2.28882 | 255 ft | 0 kts | 135° |
| 2026-05-07 18:42 | 53.36845 | -2.28899 | 255 ft | 4 kts | 135° |
| 2026-05-07 18:42 | 53.36864 | -2.28931 | 255 ft | 4 kts | 135° |
| 2026-05-07 18:43 | 53.36879 | -2.28956 | 255 ft | 4 kts | 146° |
| 2026-05-07 18:43 | 53.36901 | -2.28968 | 255 ft | 4 kts | 202° |
| 2026-05-07 18:43 | 53.36909 | -2.28962 | 255 ft | 4 kts | 225° |
| 2026-05-07 18:43 | 53.36895 | -2.28985 | 255 ft | 0 kts | 225° |
| 2026-05-07 18:46 | 53.36887 | -2.28999 | 255 ft | 4 kts | 225° |
| 2026-05-07 18:46 | 53.36852 | -2.29055 | 255 ft | 9 kts | 219° |
| 2026-05-07 18:47 | 53.36788 | -2.29100 | 255 ft | 11 kts | 200° |
| 2026-05-07 18:47 | 53.36713 | -2.29072 | 255 ft | 13 kts | 133° |
| 2026-05-07 18:47 | 53.36656 | -2.28976 | 255 ft | 10 kts | 135° |
| 2026-05-07 18:47 | 53.36626 | -2.28887 | 255 ft | 10 kts | 120° |
| 2026-05-07 18:48 | 53.36583 | -2.28785 | 255 ft | 12 kts | 116° |
| 2026-05-07 18:48 | 53.36526 | -2.28667 | 255 ft | 14 kts | 134° |
| 2026-05-07 18:48 | 53.36450 | -2.28540 | 255 ft | 17 kts | 135° |
| 2026-05-07 18:48 | 53.36390 | -2.28362 | 255 ft | 18 kts | 123° |
| 2026-05-07 18:49 | 53.36301 | -2.28212 | 255 ft | 19 kts | 135° |
| 2026-05-07 18:49 | 53.36227 | -2.28086 | 255 ft | 16 kts | 134° |
| 2026-05-07 18:49 | 53.36142 | -2.27954 | 255 ft | 18 kts | 142° |
| 2026-05-07 18:49 | 53.36040 | -2.27821 | 255 ft | 19 kts | 141° |
| 2026-05-07 18:50 | 53.35936 | -2.27727 | 255 ft | 17 kts | 176° |
| 2026-05-07 18:50 | 53.35819 | -2.27729 | 252 ft | 12 kts | 173° |
| 2026-05-07 18:50 | 53.35736 | -2.27645 | 249 ft | 17 kts | 158° |
| 2026-05-07 18:50 | 53.35639 | -2.27548 | 246 ft | 13 kts | 140° |
| 2026-05-07 18:51 | 53.35639 | -2.27416 | 247 ft | 13 kts | 50° |
| 2026-05-07 18:51 | 53.35685 | -2.27320 | 255 ft | 13 kts | 51° |
| 2026-05-07 18:51 | 53.35755 | -2.27175 | 255 ft | 17 kts | 51° |
| 2026-05-07 18:51 | 53.35829 | -2.27000 | 255 ft | 19 kts | 58° |
| 2026-05-07 18:52 | 53.35911 | -2.26806 | 256 ft | 21 kts | 55° |
| 2026-05-07 18:52 | 53.36007 | -2.26598 | 256 ft | 24 kts | 51° |
| 2026-05-07 18:52 | 53.36114 | -2.26376 | 255 ft | 25 kts | 51° |
| 2026-05-07 18:52 | 53.36213 | -2.26216 | 255 ft | 15 kts | 45° |
| 2026-05-07 18:53 | 53.36270 | -2.26078 | 255 ft | 13 kts | 72° |
| 2026-05-07 18:53 | 53.36271 | -2.26044 | 255 ft | 0 kts | 95° |
| 2026-05-07 18:54 | 53.36271 | -2.26043 | 255 ft | 1 kts | 95° |
| 2026-05-07 18:54 | 53.36272 | -2.25968 | 255 ft | 11 kts | 76° |
| 2026-05-07 18:55 | 53.36284 | -2.25812 | 257 ft | 16 kts | 114° |
| 2026-05-07 18:55 | 53.36203 | -2.25784 | 259 ft | 15 kts | 226° |
| 2026-05-07 18:55 | 53.36108 | -2.25984 | 257 ft | 44 kts | 232° |
| 2026-05-07 18:55 | 53.35778 | -2.26676 | 269 ft | 105 kts | 230° |
| 2026-05-07 18:56 | 53.35197 | -2.27859 | 245 ft | 155 kts | 232° |
| 2026-05-07 18:56 | 53.34527 | -2.29282 | 692 ft | 158 kts | 232° |
| 2026-05-07 18:56 | 53.33832 | -2.30738 | 1296 ft | 161 kts | 230° |
| 2026-05-07 18:56 | 53.33117 | -2.32253 | 1741 ft | 175 kts | 230° |
| 2026-05-07 18:57 | 53.32327 | -2.33927 | 2097 ft | 193 kts | 233° |
| 2026-05-07 18:57 | 53.31950 | -2.36222 | 2358 ft | 228 kts | 274° |
| 2026-05-07 18:57 | 53.32304 | -2.38847 | 3181 ft | 231 kts | 285° |
| 2026-05-07 18:57 | 53.32715 | -2.41438 | 3982 ft | 232 kts | 270° |
| 2026-05-07 18:58 | 53.32360 | -2.44011 | 4727 ft | 226 kts | 233° |
| 2026-05-07 18:58 | 53.31198 | -2.45632 | 5669 ft | 218 kts | 199° |
| 2026-05-07 18:58 | 53.29666 | -2.46019 | 6328 ft | 231 kts | 180° |
| 2026-05-07 18:58 | 53.27981 | -2.45896 | 6719 ft | 255 kts | 178° |
| 2026-05-07 18:59 | 53.26215 | -2.45312 | 7440 ft | 265 kts | 159° |
| 2026-05-07 18:59 | 53.24606 | -2.43743 | 8201 ft | 272 kts | 150° |
| 2026-05-07 18:59 | 53.23007 | -2.42007 | 9034 ft | 276 kts | 150° |
| 2026-05-07 18:59 | 53.21367 | -2.40285 | 9833 ft | 280 kts | 152° |
| 2026-05-07 19:00 | 53.19689 | -2.38623 | 10341 ft | 293 kts | 153° |
| 2026-05-07 19:00 | 53.17887 | -2.36936 | 10541 ft | 315 kts | 154° |
| 2026-05-07 19:00 | 53.15908 | -2.35158 | 10952 ft | 328 kts | 155° |
| 2026-05-07 19:00 | 53.13881 | -2.33370 | 11613 ft | 332 kts | 155° |
| 2026-05-07 19:01 | 53.11839 | -2.31590 | 12304 ft | 336 kts | 155° |
| 2026-05-07 19:01 | 53.09809 | -2.29825 | 12987 ft | 339 kts | 155° |
| 2026-05-07 19:01 | 53.07711 | -2.27996 | 13685 ft | 342 kts | 154° |
| 2026-05-07 19:01 | 53.05589 | -2.26142 | 14316 ft | 346 kts | 154° |
| 2026-05-07 19:02 | 53.04184 | -2.24915 | 14717 ft | 348 kts | 154° |
| 2026-05-07 19:02 | 53.02028 | -2.23039 | 15322 ft | 352 kts | 154° |
| 2026-05-07 19:02 | 52.99851 | -2.21147 | 15914 ft | 355 kts | 154° |
| 2026-05-07 19:02 | 52.97653 | -2.19236 | 16482 ft | 359 kts | 154° |
| 2026-05-07 19:03 | 52.95428 | -2.17311 | 17066 ft | 362 kts | 154° |
| 2026-05-07 19:03 | 52.93180 | -2.15375 | 17665 ft | 366 kts | 154° |
| 2026-05-07 19:03 | 52.90915 | -2.13422 | 18272 ft | 369 kts | 154° |
| 2026-05-07 19:03 | 52.88628 | -2.11449 | 18781 ft | 373 kts | 154° |
| 2026-05-07 19:04 | 52.86322 | -2.09463 | 18981 ft | 374 kts | 154° |
| 2026-05-07 19:04 | 52.83996 | -2.07463 | 19027 ft | 379 kts | 154° |
| 2026-05-07 19:04 | 52.81651 | -2.05449 | 19030 ft | 381 kts | 154° |
| 2026-05-07 19:04 | 52.79354 | -2.03476 | 19030 ft | 381 kts | 154° |
| 2026-05-07 19:05 | 52.77007 | -2.01459 | 19028 ft | 381 kts | 154° |
| 2026-05-07 19:05 | 52.74650 | -1.99434 | 19016 ft | 381 kts | 154° |
| 2026-05-07 19:05 | 52.72295 | -1.97415 | 19034 ft | 382 kts | 154° |
| 2026-05-07 19:05 | 52.69938 | -1.95397 | 19036 ft | 382 kts | 154° |
| 2026-05-07 19:06 | 52.67577 | -1.93381 | 19032 ft | 382 kts | 154° |
| 2026-05-07 19:06 | 52.62857 | -1.89357 | 19032 ft | 382 kts | 154° |
| 2026-05-07 19:06 | 52.60496 | -1.87352 | 19034 ft | 382 kts | 155° |
| 2026-05-07 19:07 | 52.58161 | -1.85371 | 19035 ft | 382 kts | 155° |
| 2026-05-07 19:07 | 52.55836 | -1.83396 | 19041 ft | 382 kts | 155° |
| 2026-05-07 19:07 | 52.53468 | -1.81388 | 19037 ft | 383 kts | 155° |
| 2026-05-07 19:07 | 52.51102 | -1.79384 | 19043 ft | 383 kts | 155° |
| 2026-05-07 19:08 | 52.48732 | -1.77382 | 19038 ft | 383 kts | 155° |
| 2026-05-07 19:08 | 52.46365 | -1.75386 | 19035 ft | 383 kts | 155° |
| 2026-05-07 19:08 | 52.43995 | -1.73387 | 19039 ft | 383 kts | 155° |
| 2026-05-07 19:08 | 52.41629 | -1.71394 | 19039 ft | 383 kts | 155° |
| 2026-05-07 19:09 | 52.39254 | -1.69396 | 19042 ft | 383 kts | 155° |
| 2026-05-07 19:09 | 52.36882 | -1.67389 | 19047 ft | 384 kts | 153° |
| 2026-05-07 19:09 | 52.34729 | -1.65044 | 19048 ft | 386 kts | 143° |
| 2026-05-07 19:09 | 52.32690 | -1.62177 | 19045 ft | 387 kts | 141° |
| 2026-05-07 19:10 | 52.30669 | -1.59312 | 19043 ft | 387 kts | 141° |
| 2026-05-07 19:10 | 52.28641 | -1.56446 | 19090 ft | 387 kts | 141° |
| 2026-05-07 19:10 | 52.26606 | -1.53582 | 19086 ft | 387 kts | 141° |
| 2026-05-07 19:10 | 52.24566 | -1.50719 | 19092 ft | 387 kts | 141° |
| 2026-05-07 19:11 | 52.22522 | -1.47853 | 19087 ft | 387 kts | 141° |
| 2026-05-07 19:11 | 52.20481 | -1.44993 | 19090 ft | 387 kts | 141° |
| 2026-05-07 19:11 | 52.18439 | -1.42135 | 19092 ft | 387 kts | 141° |
| 2026-05-07 19:11 | 52.16457 | -1.39362 | 19093 ft | 387 kts | 141° |
| 2026-05-07 19:12 | 52.14455 | -1.36564 | 19093 ft | 387 kts | 141° |
| 2026-05-07 19:12 | 52.12347 | -1.33627 | 19094 ft | 387 kts | 141° |
| 2026-05-07 19:12 | 52.10309 | -1.30792 | 18985 ft | 381 kts | 141° |
| 2026-05-07 19:12 | 52.08323 | -1.28029 | 18436 ft | 374 kts | 141° |
| 2026-05-07 19:13 | 52.06358 | -1.25299 | 17637 ft | 366 kts | 141° |
| 2026-05-07 19:13 | 52.04474 | -1.22681 | 17197 ft | 348 kts | 142° |
| 2026-05-07 19:13 | 52.02705 | -1.20227 | 16725 ft | 333 kts | 142° |
| 2026-05-07 19:13 | 52.00962 | -1.17811 | 16299 ft | 329 kts | 142° |
| 2026-05-07 19:14 | 51.99221 | -1.15408 | 15866 ft | 328 kts | 142° |
| 2026-05-07 19:14 | 51.97577 | -1.13143 | 15459 ft | 327 kts | 142° |
| 2026-05-07 19:14 | 51.95844 | -1.10756 | 15030 ft | 326 kts | 142° |
| 2026-05-07 19:14 | 51.94106 | -1.08362 | 14280 ft | 335 kts | 142° |
| 2026-05-07 19:15 | 51.92302 | -1.05878 | 13427 ft | 345 kts | 142° |
| 2026-05-07 19:15 | 51.90490 | -1.03384 | 13116 ft | 335 kts | 142° |
| 2026-05-07 19:15 | 51.88785 | -1.01035 | 12969 ft | 310 kts | 142° |
| 2026-05-07 19:15 | 51.87179 | -0.98822 | 12606 ft | 299 kts | 142° |
| 2026-05-07 19:16 | 51.85656 | -0.96575 | 12436 ft | 296 kts | 133° |
| 2026-05-07 19:16 | 51.84517 | -0.93777 | 12109 ft | 301 kts | 118° |
| 2026-05-07 19:16 | 51.83590 | -0.90748 | 11702 ft | 299 kts | 118° |
| 2026-05-07 19:16 | 51.82723 | -0.87881 | 11335 ft | 296 kts | 118° |
| 2026-05-07 19:17 | 51.81817 | -0.84888 | 10927 ft | 297 kts | 118° |
| 2026-05-07 19:17 | 51.80903 | -0.81956 | 10545 ft | 296 kts | 123° |
| 2026-05-07 19:17 | 51.79528 | -0.79553 | 10146 ft | 292 kts | 149° |
| 2026-05-07 19:17 | 51.77664 | -0.78385 | 9714 ft | 288 kts | 175° |
| 2026-05-07 19:18 | 51.75672 | -0.78521 | 9263 ft | 287 kts | 189° |
| 2026-05-07 19:18 | 51.73700 | -0.79036 | 8781 ft | 286 kts | 191° |
| 2026-05-07 19:18 | 51.71775 | -0.79581 | 8350 ft | 278 kts | 191° |
| 2026-05-07 19:18 | 51.69905 | -0.80119 | 7915 ft | 271 kts | 191° |
| 2026-05-07 19:19 | 51.68106 | -0.80641 | 7538 ft | 263 kts | 191° |
| 2026-05-07 19:19 | 51.66331 | -0.81155 | 7158 ft | 256 kts | 191° |
| 2026-05-07 19:19 | 51.64589 | -0.81466 | 6781 ft | 248 kts | 182° |
| 2026-05-07 19:19 | 51.62881 | -0.81535 | 6358 ft | 243 kts | 181° |
| 2026-05-07 19:20 | 51.61198 | -0.81579 | 5917 ft | 243 kts | 181° |
| 2026-05-07 19:20 | 51.59493 | -0.81630 | 5476 ft | 247 kts | 181° |
| 2026-05-07 19:20 | 51.57764 | -0.81689 | 5044 ft | 252 kts | 181° |
| 2026-05-07 19:20 | 51.56029 | -0.81763 | 4638 ft | 245 kts | 180° |
| 2026-05-07 19:21 | 51.54360 | -0.81862 | 4299 ft | 235 kts | 181° |
| 2026-05-07 19:21 | 51.52799 | -0.81741 | 4136 ft | 216 kts | 161° |
| 2026-05-07 19:21 | 51.51625 | -0.80504 | 4030 ft | 194 kts | 129° |
| 2026-05-07 19:21 | 51.50845 | -0.78789 | 3829 ft | 188 kts | 122° |
| 2026-05-07 19:22 | 51.50152 | -0.77060 | 3534 ft | 183 kts | 121° |
| 2026-05-07 19:22 | 51.49496 | -0.75372 | 3263 ft | 175 kts | 121° |
| 2026-05-07 19:22 | 51.48870 | -0.73751 | 3030 ft | 166 kts | 121° |
| 2026-05-07 19:22 | 51.48276 | -0.72209 | 2910 ft | 164 kts | 121° |
| 2026-05-07 19:23 | 51.47740 | -0.70607 | 2788 ft | 162 kts | 107° |
| 2026-05-07 19:23 | 51.47641 | -0.68837 | 2599 ft | 163 kts | 91° |
| 2026-05-07 19:23 | 51.47654 | -0.67025 | 2400 ft | 162 kts | 90° |
| 2026-05-07 19:23 | 51.47667 | -0.65217 | 2182 ft | 163 kts | 91° |
| 2026-05-07 19:24 | 51.47677 | -0.63399 | 1951 ft | 163 kts | 91° |
| 2026-05-07 19:24 | 51.47686 | -0.61629 | 1747 ft | 163 kts | 91° |
| 2026-05-07 19:24 | 51.47696 | -0.59785 | 1507 ft | 164 kts | 92° |
| 2026-05-07 19:24 | 51.47705 | -0.57958 | 1293 ft | 163 kts | 92° |
| 2026-05-07 19:25 | 51.47714 | -0.56221 | 1096 ft | 154 kts | 91° |
| 2026-05-07 19:25 | 51.47720 | -0.54560 | 844 ft | 144 kts | 92° |
| 2026-05-07 19:25 | 51.47736 | -0.52979 | 701 ft | 140 kts | 91° |
| 2026-05-07 19:25 | 51.47736 | -0.51440 | 464 ft | 136 kts | 92° |
| 2026-05-07 19:26 | 51.47747 | -0.49926 | 324 ft | 135 kts | 92° |
| 2026-05-07 19:26 | 51.47749 | -0.48433 | 144 ft | 134 kts | 92° |
| 2026-05-07 19:26 | 51.47750 | -0.47034 | 88 ft | 109 kts | 89° |
| 2026-05-07 19:26 | 51.47754 | -0.46282 | 91 ft | 41 kts | 89° |
| 2026-05-07 19:27 | 51.47759 | -0.45823 | 86 ft | 40 kts | 89° |
| 2026-05-07 19:27 | 51.47742 | -0.45509 | 87 ft | 21 kts | 133° |
| 2026-05-07 19:27 | 51.47636 | -0.45471 | 87 ft | 12 kts | 184° |
| 2026-05-07 19:27 | 51.47597 | -0.45575 | 87 ft | 13 kts | 268° |
| 2026-05-07 19:28 | 51.47595 | -0.45688 | 90 ft | 10 kts | 268° |
| 2026-05-07 19:28 | 51.47593 | -0.45814 | 88 ft | 12 kts | 269° |
| 2026-05-07 19:28 | 51.47594 | -0.45950 | 89 ft | 13 kts | 271° |
| 2026-05-07 19:28 | 51.47593 | -0.46105 | 89 ft | 15 kts | 269° |
| 2026-05-07 19:29 | 51.47592 | -0.46284 | 87 ft | 17 kts | 270° |
| 2026-05-07 19:29 | 51.47593 | -0.46491 | 87 ft | 19 kts | 269° |
| 2026-05-07 19:29 | 51.47589 | -0.46718 | 87 ft | 22 kts | 268° |
| 2026-05-07 19:29 | 51.47583 | -0.46939 | 89 ft | 17 kts | 269° |
| 2026-05-07 19:30 | 51.47581 | -0.47143 | 91 ft | 20 kts | 269° |
| 2026-05-07 19:30 | 51.47580 | -0.47364 | 87 ft | 18 kts | 268° |
| 2026-05-07 19:30 | 51.47578 | -0.47582 | 88 ft | 21 kts | 270° |
| 2026-05-07 19:30 | 51.47579 | -0.47826 | 90 ft | 23 kts | 269° |
| 2026-05-07 19:31 | 51.47578 | -0.48051 | 89 ft | 19 kts | 270° |
| 2026-05-07 19:31 | 51.47578 | -0.48275 | 88 ft | 20 kts | 269° |
| 2026-05-07 19:31 | 51.47568 | -0.48456 | 87 ft | 13 kts | 234° |
| 2026-05-07 19:31 | 51.47490 | -0.48526 | 89 ft | 14 kts | 249° |
| 2026-05-07 19:32 | 51.47486 | -0.48698 | 88 ft | 17 kts | 270° |
| 2026-05-07 19:32 | 51.47487 | -0.48875 | 89 ft | 13 kts | 282° |
| 2026-05-07 19:32 | 51.47454 | -0.48958 | 88 ft | 9 kts | 170° |
| 2026-05-07 19:32 | 51.47426 | -0.48956 | 87 ft | 1 kts | 179° |
| 2026-05-07 19:33 | 51.47417 | -0.48955 | 89 ft | 0 kts | 179° |